KSLN/SLN METAR and TAF weather

Enter ICAO airport designator
Station Type Date Time Source
KSLN METAR 2020/08/10 17:53 UTC NOAA

KSLN 101753Z VRB03KT 10SM CLR 32/21 A2995 RMK AO2 SLP124 T03220206 10328 20256 50012


Station Type Date Time Source
KSLN Decoded METAR 2020/08/10 17:53 UTC NOAA

SALINA MUNICIPAL AIRPORT, KS, United States (KSLN) 38-47N 97-39W 385M
Aug 10, 2020 - 01:53 PM EDT / 2020.08.10 1753 UTC
Wind: Variable at 3 MPH (3 KT):0
Visibility: 10 mile(s):0
Sky conditions: clear
Temperature: 90.0 F (32.2 C)
Heat index: 94.6 F (34.8 C):1
Dew Point: 69.1 F (20.6 C)
Relative Humidity: 50%
Pressure (altimeter): 29.95 in. Hg (1014 hPa)
Pressure tendency: 0.04 inches (1.2 hPa) higher than three hours ago
ob: KSLN 101753Z VRB03KT 10SM CLR 32/21 A2995 RMK AO2 SLP124 T03220206 10328 20256 50012
cycle: 18

Station Type Date Time Source
KSLN TAF 2020/08/10 18:42 UTC NOAA

TAF KSLN 101740Z 1018/1118 03006KT P6SM FEW080
FM110000 08006KT P6SM VCTS BKN080CB
FM110600 02004KT P6SM BKN250
FM111300 08004KT P6SM SCT070

Example: see airport list